Time;durP1;ratioP1;P1;durP2;ratioP2;P2;SDS_P1;SDS_P2;PMS_P1;PMS_P2;Temp;Humidity;BMP_temperature;BMP_pressure;BME280_temperature;BME280_humidity;BME280_pressure;Samples;Min_cycle;Max_cycle;Signal;HPM_P1;HPM_P2
2021/04/08 00:02:04;;;;;;;2.43;1.83;;;;;;;2.55;56.64;98705.84;5045597;28;20036;-62
2021/04/08 00:04:30;;;;;;;2.37;2.07;;;;;;;2.62;56.33;98710.19;5054480;28;20136;-62
2021/04/08 00:06:56;;;;;;;1.80;1.60;;;;;;;2.71;56.20;98708.63;5053910;28;20115;-62
2021/04/08 00:09:23;;;;;;;1.00;1.00;;;;;;;2.77;55.52;98710.38;5053077;28;20642;-63
2021/04/08 00:11:48;;;;;;;1.67;1.57;;;;;;;2.72;56.12;98702.72;5053941;28;20035;-62
2021/04/08 00:14:15;;;;;;;1.87;1.67;;;;;;;2.78;55.97;98701.09;5052615;28;20032;-62
2021/04/08 00:16:40;;;;;;;2.27;1.37;;;;;;;2.84;55.97;98706.25;5053473;28;20425;-62
2021/04/08 00:19:07;;;;;;;1.63;1.53;;;;;;;2.77;55.65;98700.25;5054986;28;20028;-62
2021/04/08 00:21:33;;;;;;;1.37;1.27;;;;;;;2.77;56.22;98705.31;5054089;28;20021;-62
2021/04/08 00:23:58;;;;;;;1.00;1.00;;;;;;;2.78;55.88;98703.63;5053428;28;20095;-62
2021/04/08 00:26:23;;;;;;;1.27;1.17;;;;;;;2.84;55.87;98699.53;5053774;28;20113;-62
2021/04/08 00:28:49;;;;;;;1.70;1.60;;;;;;;2.80;56.32;98705.34;5054875;28;20099;-63
2021/04/08 00:31:14;;;;;;;1.70;1.30;;;;;;;2.83;56.15;98705.41;5053624;28;20033;-62
2021/04/08 00:33:40;;;;;;;1.10;1.10;;;;;;;2.84;56.59;98708.78;5055133;28;20033;-63
2021/04/08 00:36:05;;;;;;;1.63;1.20;;;;;;;2.88;56.32;98708.00;5053607;28;20370;-63
2021/04/08 00:38:31;;;;;;;1.17;1.10;;;;;;;2.87;56.27;98707.16;5038774;28;20024;-63
2021/04/08 00:40:57;;;;;;;0.80;0.80;;;;;;;2.84;56.46;98712.19;5053398;28;20025;-65
2021/04/08 00:43:22;;;;;;;0.90;0.90;;;;;;;2.95;56.10;98719.91;5053256;28;20039;-63
2021/04/08 00:45:48;;;;;;;1.50;1.40;;;;;;;2.93;56.32;98722.41;5056706;28;20020;-63
2021/04/08 00:48:13;;;;;;;0.93;0.93;;;;;;;2.92;56.94;98735.06;5059261;28;20036;-63
2021/04/08 00:50:38;;;;;;;1.10;1.00;;;;;;;2.91;57.04;98738.41;5058542;28;20037;-63
2021/04/08 00:53:08;;;;;;;0.90;0.90;;;;;;;2.96;57.57;98726.66;5058295;28;20024;-63
2021/04/08 00:55:38;;;;;;;1.43;1.00;;;;;;;2.94;57.90;98743.50;5057642;28;20040;-63
2021/04/08 00:58:05;;;;;;;1.03;1.00;;;;;;;2.93;58.72;98752.78;5058236;28;20033;-63
2021/04/08 01:00:32;;;;;;;1.53;1.33;;;;;;;2.92;59.29;98743.50;5057274;28;20021;-63
2021/04/08 01:02:57;;;;;;;0.83;0.83;;;;;;;2.80;60.46;98745.84;5056270;28;20040;-63
2021/04/08 01:05:23;;;;;;;0.80;0.80;;;;;;;2.76;61.84;98741.56;5059446;28;20033;-63
2021/04/08 01:07:50;;;;;;;1.10;1.10;;;;;;;2.56;64.86;98773.34;5055922;28;20071;-63
2021/04/08 01:10:17;;;;;;;0.90;0.90;;;;;;;2.37;65.75;98754.53;5058478;28;20024;-63
2021/04/08 01:12:42;;;;;;;1.20;1.10;;;;;;;2.37;67.06;98758.75;5056162;28;20298;-63
2021/04/08 01:15:10;;;;;;;1.30;1.20;;;;;;;2.29;68.09;98753.56;5057252;28;20029;-63
2021/04/08 01:17:50;;;;;;;1.37;1.27;;;;;;;2.28;69.18;98767.03;5057717;28;20477;-63
2021/04/08 01:20:30;;;;;;;1.23;1.20;;;;;;;2.22;69.58;98765.25;5058123;28;20083;-63
2021/04/08 01:23:33;;;;;;;1.00;1.00;;;;;;;2.13;70.60;98771.81;5056123;28;20279;-63
2021/04/08 01:26:20;;;;;;;1.10;1.10;;;;;;;2.15;71.18;98772.72;5057144;28;20382;-63
2021/04/08 01:28:56;;;;;;;1.70;1.60;;;;;;;2.12;71.20;98775.19;5054671;28;20338;-63
2021/04/08 01:31:23;;;;;;;1.27;1.17;;;;;;;2.22;70.79;98777.03;5055837;28;20420;-63
2021/04/08 01:33:54;;;;;;;1.30;1.20;;;;;;;2.19;71.01;98771.94;5056650;28;20086;-63
2021/04/08 01:36:26;;;;;;;1.40;1.30;;;;;;;2.28;70.33;98784.75;5057709;28;20036;-63
2021/04/08 01:38:57;;;;;;;1.10;1.00;;;;;;;2.26;69.83;98787.22;5056281;28;20025;-63
2021/04/08 01:41:24;;;;;;;1.00;1.00;;;;;;;2.33;68.80;98788.19;5056789;28;20157;-63
2021/04/08 01:43:54;;;;;;;1.23;1.13;;;;;;;2.37;69.21;98792.47;5054882;28;20028;-63
2021/04/08 01:46:22;;;;;;;1.40;1.30;;;;;;;2.35;69.60;98793.25;5056543;28;20059;-63
2021/04/08 01:48:51;;;;;;;1.13;1.10;;;;;;;2.29;70.26;98804.16;5056792;28;20115;-62
2021/04/08 01:51:18;;;;;;;1.30;1.20;;;;;;;2.21;69.67;98803.16;5039861;28;20044;-62
2021/04/08 01:53:52;;;;;;;1.60;1.50;;;;;;;2.23;70.16;98797.31;5055863;28;20035;-62
2021/04/08 01:56:21;;;;;;;1.73;1.57;;;;;;;2.22;70.47;98799.78;5057876;28;20021;-62
2021/04/08 01:58:48;;;;;;;1.60;1.50;;;;;;;2.26;70.45;98804.94;5042323;28;20282;-62
2021/04/08 02:01:18;;;;;;;1.80;1.70;;;;;;;2.33;70.29;98805.91;5055481;28;20425;-63
2021/04/08 02:03:45;;;;;;;1.30;1.20;;;;;;;2.30;69.97;98808.34;5055279;28;20127;-62
2021/04/08 02:06:11;;;;;;;1.47;1.37;;;;;;;2.31;69.82;98817.66;5054625;28;20033;-62
2021/04/08 02:08:39;;;;;;;1.90;1.70;;;;;;;2.34;69.68;98822.75;5053918;28;20044;-62
2021/04/08 02:11:09;;;;;;;1.40;1.30;;;;;;;2.29;69.52;98831.97;5052542;28;20025;-62
2021/04/08 02:13:35;;;;;;;1.73;1.63;;;;;;;2.32;70.39;98826.09;5054546;28;20028;-62
2021/04/08 02:16:01;;;;;;;1.47;1.37;;;;;;;2.32;69.78;98821.91;5056025;28;20056;-62
2021/04/08 02:18:28;;;;;;;1.40;1.30;;;;;;;2.37;70.09;98820.31;5055979;28;20033;-62
2021/04/08 02:20:58;;;;;;;1.63;1.40;;;;;;;2.43;69.14;98807.72;5052931;28;20031;-62
2021/04/08 02:23:25;;;;;;;1.70;1.30;;;;;;;2.44;68.71;98821.25;5050730;28;20402;-61
2021/04/08 02:25:52;;;;;;;1.50;1.40;;;;;;;2.44;67.54;98818.72;5051298;28;20124;-62
2021/04/08 02:28:19;;;;;;;1.67;1.40;;;;;;;2.48;67.58;98807.81;5050385;28;20032;-63
2021/04/08 02:30:48;;;;;;;1.63;1.53;;;;;;;2.58;65.87;98809.66;5051377;28;20032;-65
2021/04/08 02:33:29;;;;;;;1.27;1.27;;;;;;;2.65;65.60;98811.44;5054405;28;20056;-66
2021/04/08 02:35:57;;;;;;;1.27;1.23;;;;;;;2.63;64.23;98803.00;5037767;28;20074;-63
2021/04/08 02:38:27;;;;;;;1.57;1.47;;;;;;;2.68;64.34;98803.91;5046082;28;20087;-63
2021/04/08 02:40:54;;;;;;;1.60;1.50;;;;;;;2.70;63.93;98815.75;5048785;28;20075;-63
2021/04/08 02:43:21;;;;;;;1.47;1.37;;;;;;;2.74;63.31;98807.38;5039526;28;20041;-62
2021/04/08 02:45:46;;;;;;;1.43;1.10;;;;;;;2.72;63.94;98814.09;5041479;28;20066;-63
2021/04/08 02:48:14;;;;;;;1.63;1.53;;;;;;;2.81;63.08;98825.19;5059014;28;20025;-62
2021/04/08 02:50:42;;;;;;;1.20;1.20;;;;;;;2.79;62.70;98821.78;5055275;28;20040;-63
2021/04/08 02:53:16;;;;;;;1.33;1.23;;;;;;;2.79;62.52;98830.25;5050670;28;20115;-63
2021/04/08 02:56:01;;;;;;;1.50;1.40;;;;;;;2.81;62.64;98822.66;5054115;28;20069;-62
2021/04/08 02:58:29;;;;;;;1.38;1.27;;;;;;;2.81;63.28;98827.72;5050460;28;20401;-62
2021/04/08 03:01:01;;;;;;;1.37;1.37;;;;;;;2.85;63.12;98834.53;5052479;28;20036;-63
2021/04/08 03:03:41;;;;;;;1.73;1.63;;;;;;;2.82;63.63;98827.75;5054267;28;20084;-63
2021/04/08 03:06:09;;;;;;;1.70;1.60;;;;;;;2.69;64.67;98831.78;5054899;28;20043;-62
2021/04/08 03:08:36;;;;;;;1.53;1.43;;;;;;;2.72;64.46;98836.88;5054430;28;20087;-62
2021/04/08 03:11:05;;;;;;;1.60;1.50;;;;;;;2.73;64.05;98805.69;5037603;28;20059;-62
2021/04/08 03:13:34;;;;;;;1.67;1.57;;;;;;;2.64;64.37;98837.59;5054725;28;20035;-62
2021/04/08 03:16:05;;;;;;;2.03;1.93;;;;;;;2.72;63.72;98846.13;5053668;28;20036;-63
2021/04/08 03:18:32;;;;;;;1.70;1.50;;;;;;;2.65;64.49;98832.56;5053853;28;20044;-63
2021/04/08 03:20:58;;;;;;;2.03;1.80;;;;;;;2.58;64.93;98838.34;5052862;28;20106;-63
2021/04/08 03:23:25;;;;;;;1.80;1.70;;;;;;;2.49;65.38;98839.88;5053507;28;20032;-64
2021/04/08 03:25:52;;;;;;;1.80;1.70;;;;;;;2.46;66.29;98832.25;5052928;28;20040;-65
2021/04/08 03:28:18;;;;;;;2.40;2.20;;;;;;;2.38;66.70;98843.94;5054582;28;20036;-66
2021/04/08 03:30:46;;;;;;;2.27;2.07;;;;;;;2.29;67.44;98847.97;5055197;28;20025;-65
2021/04/08 03:33:16;;;;;;;4.03;3.73;;;;;;;2.33;67.29;98835.41;5053559;28;20554;-65
2021/04/08 03:35:46;;;;;;;3.27;2.97;;;;;;;2.28;66.79;98850.50;5055063;28;20029;-66
2021/04/08 03:38:13;;;;;;;3.37;2.93;;;;;;;2.32;66.49;98842.13;5053597;28;20033;-66
2021/04/08 03:40:38;;;;;;;7.60;3.77;;;;;;;2.31;66.69;98850.53;5055969;28;20062;-66
2021/04/08 03:43:05;;;;;;;4.13;3.73;;;;;;;2.32;66.44;98854.78;5052880;28;20060;-66
2021/04/08 03:45:30;;;;;;;4.93;3.80;;;;;;;2.36;66.13;98859.06;5053429;28;20609;-66
2021/04/08 03:48:00;;;;;;;3.73;3.43;;;;;;;2.40;64.33;98855.75;5054032;28;20116;-65
2021/04/08 03:50:27;;;;;;;3.60;3.30;;;;;;;2.35;64.83;98848.91;5053716;28;20056;-63
2021/04/08 03:52:53;;;;;;;4.33;3.30;;;;;;;2.37;64.33;98858.25;5054387;28;20044;-63
2021/04/08 03:55:20;;;;;;;4.33;3.63;;;;;;;2.43;64.20;98850.75;5054801;28;20131;-63
2021/04/08 03:57:46;;;;;;;3.90;3.40;;;;;;;2.41;64.10;98861.69;5052671;28;20080;-63
2021/04/08 04:00:13;;;;;;;4.37;3.37;;;;;;;2.46;63.42;98860.09;5053963;28;20033;-63
2021/04/08 04:02:40;;;;;;;4.33;3.77;;;;;;;2.38;63.64;98862.47;5054112;28;20028;-63
2021/04/08 04:05:08;;;;;;;3.40;3.07;;;;;;;2.44;63.40;98871.84;5046385;28;20079;-63
2021/04/08 04:07:36;;;;;;;5.57;3.77;;;;;;;2.44;62.43;98860.03;5044434;28;20053;-62
2021/04/08 04:10:03;;;;;;;6.33;3.87;;;;;;;2.42;62.49;98865.91;5036659;28;20052;-62
2021/04/08 04:12:29;;;;;;;4.43;4.03;;;;;;;2.45;61.96;98868.50;5050504;28;20067;-63
2021/04/08 04:14:57;;;;;;;6.03;3.07;;;;;;;2.49;61.42;98875.31;5054419;28;20107;-63
2021/04/08 04:17:27;;;;;;;4.30;3.03;;;;;;;2.48;61.43;98876.97;5050323;28;20512;-63
2021/04/08 04:19:54;;;;;;;2.73;2.47;;;;;;;2.48;59.19;98866.84;5048179;28;20028;-63
2021/04/08 04:22:20;;;;;;;3.57;3.13;;;;;;;2.58;59.37;98876.31;5046841;28;20032;-63
2021/04/08 04:24:46;;;;;;;3.73;3.27;;;;;;;2.60;58.33;98874.66;5051086;28;20039;-63
2021/04/08 04:27:11;;;;;;;5.17;3.50;;;;;;;2.51;58.34;98866.03;5050017;28;20029;-63
2021/04/08 04:29:37;;;;;;;3.27;2.50;;;;;;;2.50;58.29;98872.81;5049638;28;20083;-63
2021/04/08 04:32:03;;;;;;;4.00;2.53;;;;;;;2.52;58.16;98881.25;5050180;28;20024;-63
2021/04/08 04:34:28;;;;;;;4.27;2.63;;;;;;;2.45;59.00;98892.13;5036767;28;20090;-63
2021/04/08 04:36:53;;;;;;;3.77;3.00;;;;;;;2.47;58.18;98890.44;5049358;28;20330;-63
2021/04/08 04:39:19;;;;;;;4.77;2.80;;;;;;;2.48;57.39;98893.84;5053909;28;20109;-63
2021/04/08 04:41:44;;;;;;;3.33;2.87;;;;;;;2.62;56.40;98898.31;5050579;28;20033;-63
2021/04/08 04:44:10;;;;;;;2.40;2.20;;;;;;;2.54;56.95;98899.88;5056295;28;20044;-63
2021/04/08 04:46:36;;;;;;;2.83;2.57;;;;;;;2.63;55.53;98891.56;5038242;28;20051;-63
2021/04/08 04:49:01;;;;;;;5.83;3.47;;;;;;;2.64;56.44;98910.97;5054064;28;20036;-62
2021/04/08 04:51:27;;;;;;;4.23;2.47;;;;;;;2.60;56.71;98921.88;5053775;28;20025;-61
2021/04/08 04:53:52;;;;;;;3.10;2.43;;;;;;;2.58;56.07;98901.63;5041724;28;20391;-62
2021/04/08 04:56:17;;;;;;;3.47;3.17;;;;;;;2.52;56.34;98901.50;5032668;28;20096;-62
2021/04/08 04:58:43;;;;;;;5.17;2.80;;;;;;;2.64;56.35;98903.38;5031627;28;20144;-61
2021/04/08 05:01:08;;;;;;;4.27;3.03;;;;;;;2.57;56.43;98904.13;5029584;28;20029;-62
2021/04/08 05:03:34;;;;;;;2.93;2.63;;;;;;;2.59;56.21;98917.66;5037544;28;20343;-62
2021/04/08 05:05:59;;;;;;;6.63;3.43;;;;;;;2.61;55.01;98908.41;5050450;28;20024;-62
2021/04/08 05:08:24;;;;;;;5.03;2.87;;;;;;;2.61;55.22;98928.66;5054269;28;20067;-62
2021/04/08 05:10:50;;;;;;;4.83;3.83;;;;;;;2.62;55.93;98918.56;5052287;28;20029;-61
2021/04/08 05:13:15;;;;;;;4.40;2.83;;;;;;;2.60;56.59;98925.25;5055198;28;20045;-61
2021/04/08 05:15:41;;;;;;;3.20;2.90;;;;;;;2.64;56.56;98923.63;5053101;28;20424;-62
2021/04/08 05:18:07;;;;;;;2.63;2.43;;;;;;;2.66;56.59;98949.84;5054862;28;20041;-61
2021/04/08 05:20:32;;;;;;;2.47;2.10;;;;;;;2.56;57.04;98927.72;5053039;28;20060;-61
2021/04/08 05:22:58;;;;;;;4.27;2.47;;;;;;;2.58;57.21;98932.00;5053801;28;20159;-61
2021/04/08 05:25:23;;;;;;;4.20;2.50;;;;;;;2.61;58.42;98934.56;5053127;28;20102;-61
2021/04/08 05:27:49;;;;;;;3.97;2.67;;;;;;;2.61;58.63;98949.75;5053561;28;20024;-61
2021/04/08 05:30:14;;;;;;;1.83;1.73;;;;;;;2.53;58.49;98928.53;5053164;28;20108;-61
2021/04/08 05:32:40;;;;;;;2.37;2.13;;;;;;;2.59;58.18;98955.63;5053713;28;20036;-62
2021/04/08 05:35:06;;;;;;;1.80;1.70;;;;;;;2.61;58.06;98939.63;5058651;28;20385;-62
2021/04/08 05:37:31;;;;;;;1.97;1.83;;;;;;;2.62;57.85;98943.00;5056890;28;20059;-62
2021/04/08 05:39:58;;;;;;;2.17;1.90;;;;;;;2.72;58.50;98949.91;5057196;28;20037;-62
2021/04/08 05:42:23;;;;;;;3.10;2.80;;;;;;;2.76;58.24;98957.59;5056251;28;20028;-62
2021/04/08 05:44:49;;;;;;;5.27;3.00;;;;;;;2.76;58.15;98967.72;5054246;28;20329;-62
2021/04/08 05:47:14;;;;;;;3.43;1.70;;;;;;;2.93;58.13;98964.66;5056278;28;20063;-62
2021/04/08 05:49:39;;;;;;;2.20;2.00;;;;;;;2.97;56.89;98971.47;5050744;28;20163;-62
2021/04/08 05:52:05;;;;;;;2.30;2.10;;;;;;;3.02;55.83;98968.16;5056324;28;20040;-61
2021/04/08 05:54:32;;;;;;;2.90;2.27;;;;;;;3.12;56.21;98986.91;5057209;28;20031;-62
2021/04/08 05:56:57;;;;;;;2.37;2.17;;;;;;;3.20;55.33;98982.78;5056016;28;20040;-61
2021/04/08 05:59:24;;;;;;;2.13;1.97;;;;;;;3.15;54.84;98994.53;5054360;28;20024;-62
2021/04/08 06:01:49;;;;;;;2.67;2.47;;;;;;;3.25;54.46;98990.47;5056603;28;20154;-62
2021/04/08 06:04:15;;;;;;;3.00;2.33;;;;;;;3.27;54.34;98989.66;5055669;28;20090;-59
2021/04/08 06:06:40;;;;;;;3.83;2.30;;;;;;;3.31;54.38;98978.75;5053779;28;20033;-62
2021/04/08 06:09:05;;;;;;;3.83;2.30;;;;;;;3.38;55.09;99020.25;5055710;28;20077;-61
2021/04/08 06:11:31;;;;;;;2.40;2.20;;;;;;;3.43;53.45;98981.47;5052587;28;20029;-62
2021/04/08 06:13:57;;;;;;;3.37;2.97;;;;;;;3.38;55.02;99013.50;5055647;28;20017;-64
2021/04/08 06:16:22;;;;;;;3.03;2.47;;;;;;;3.41;53.95;99030.41;5054733;28;20029;-65
2021/04/08 06:18:47;;;;;;;4.73;2.43;;;;;;;3.32;54.55;99022.66;5054244;28;20044;-65
2021/04/08 06:21:13;;;;;;;4.63;3.03;;;;;;;3.31;54.67;99019.28;5054374;28;20066;-65
2021/04/08 06:23:38;;;;;;;4.47;3.43;;;;;;;3.33;55.48;99009.19;5055056;28;20056;-63
2021/04/08 06:26:04;;;;;;;3.47;2.67;;;;;;;3.27;55.56;99031.91;5055074;28;20028;-65
2021/04/08 06:28:29;;;;;;;5.67;2.97;;;;;;;3.16;55.54;99031.72;5056883;28;20467;-64
2021/04/08 06:30:55;;;;;;;3.53;2.23;;;;;;;3.17;55.61;99029.22;5053533;28;20057;-64
2021/04/08 06:33:20;;;;;;;5.30;2.57;;;;;;;3.26;56.05;99031.03;5056103;28;20381;-61
2021/04/08 06:35:46;;;;;;;3.27;2.37;;;;;;;3.18;55.76;99048.63;5056434;28;20033;-63
2021/04/08 06:38:11;;;;;;;3.60;3.23;;;;;;;3.26;55.86;99046.25;5055105;28;20033;-64
2021/04/08 06:40:36;;;;;;;3.50;2.93;;;;;;;3.32;55.95;99053.06;5055410;28;20186;-63
2021/04/08 06:43:03;;;;;;;2.90;2.70;;;;;;;3.18;55.88;99056.22;5055403;28;20021;-61
2021/04/08 06:45:32;;;;;;;3.80;2.80;;;;;;;3.27;55.33;99045.41;5055702;28;20115;-62
2021/04/08 06:48:00;;;;;;;4.10;3.67;;;;;;;3.45;55.54;99057.50;5056624;28;20047;-63
2021/04/08 06:50:37;;;;;;;2.73;2.47;;;;;;;3.40;54.40;99067.56;5053753;28;20036;-63
2021/04/08 06:53:05;;;;;;;3.97;2.80;;;;;;;3.46;54.38;99065.16;5067842;28;20028;-63
2021/04/08 06:55:30;;;;;;;3.70;3.40;;;;;;;3.52;55.44;99077.09;5054692;28;20151;-62
2021/04/08 06:57:58;;;;;;;3.10;2.83;;;;;;;3.57;53.67;99090.66;5056787;28;20056;-62
2021/04/08 07:00:24;;;;;;;3.57;3.27;;;;;;;3.60;52.91;99075.50;5054700;28;20025;-62
2021/04/08 07:02:50;;;;;;;2.43;2.23;;;;;;;3.73;53.55;99086.69;5054215;28;20370;-61
2021/04/08 07:05:16;;;;;;;3.47;2.50;;;;;;;3.95;51.84;99087.03;5055349;28;20027;-63
2021/04/08 07:07:41;;;;;;;3.30;2.53;;;;;;;3.80;52.94;99122.31;5054557;28;20032;-62
2021/04/08 07:10:07;;;;;;;3.93;2.67;;;;;;;3.71;52.93;99106.09;5055999;28;20139;-64
2021/04/08 07:12:33;;;;;;;2.80;2.57;;;;;;;3.78;52.98;99113.81;5053989;28;20124;-63
2021/04/08 07:14:59;;;;;;;3.90;3.13;;;;;;;3.89;52.66;99106.38;5053615;28;20025;-61
2021/04/08 07:17:24;;;;;;;3.47;3.10;;;;;;;3.90;52.45;99114.03;5054504;28;20684;-61
2021/04/08 07:19:50;;;;;;;4.13;3.07;;;;;;;3.78;52.60;99113.81;5055645;28;20154;-61
2021/04/08 07:22:17;;;;;;;3.23;2.43;;;;;;;3.89;51.85;99096.25;5053550;28;20036;-61
2021/04/08 07:24:45;;;;;;;4.00;2.93;;;;;;;4.04;52.44;99126.88;5055338;28;20039;-63
2021/04/08 07:27:22;;;;;;;2.90;2.40;;;;;;;4.09;51.44;99127.81;5054987;28;20107;-66
2021/04/08 07:29:55;;;;;;;3.07;2.87;;;;;;;4.24;51.48;99125.50;5054338;28;20025;-63
2021/04/08 07:32:25;;;;;;;3.47;2.67;;;;;;;4.36;49.36;99128.22;5054676;28;20090;-64
2021/04/08 07:34:52;;;;;;;4.60;2.90;;;;;;;4.38;50.52;99129.06;5055339;28;20025;-64
2021/04/08 07:37:25;;;;;;;2.17;2.03;;;;;;;4.55;48.67;99153.00;5052743;28;20115;-64
2021/04/08 07:39:51;;;;;;;3.47;2.73;;;;;;;4.48;48.75;99158.84;5053852;28;20074;-62
2021/04/08 07:42:19;;;;;;;2.67;2.20;;;;;;;4.48;49.13;99150.38;5053919;28;20275;-63
2021/04/08 07:44:49;;;;;;;6.60;3.37;;;;;;;4.43;48.18;99165.53;5053213;28;20032;-62
2021/04/08 07:47:40;;;;;;;3.03;2.43;;;;;;;4.49;48.21;99175.78;5053739;28;20259;-62
2021/04/08 07:50:05;;;;;;;5.13;2.73;;;;;;;4.56;47.76;99159.78;5053297;28;20037;-65
2021/04/08 07:52:34;;;;;;;6.00;3.17;;;;;;;4.78;47.72;99201.56;5053057;28;20112;-65
2021/04/08 07:55:08;;;;;;;4.23;3.47;;;;;;;4.88;46.06;99180.50;5055331;28;20094;-63
2021/04/08 07:57:51;;;;;;;4.03;2.53;;;;;;;4.78;45.97;99182.94;5053836;28;20334;-63
2021/04/08 08:00:20;;;;;;;3.67;3.03;;;;;;;4.84;46.21;99185.53;5053961;28;20048;-63
2021/04/08 08:02:46;;;;;;;2.53;2.23;;;;;;;4.70;45.97;99212.44;5055068;28;20317;-63
2021/04/08 08:05:17;;;;;;;2.73;2.40;;;;;;;4.77;47.93;99194.75;5054089;28;20048;-62
2021/04/08 08:07:44;;;;;;;4.40;3.20;;;;;;;5.24;46.72;99184.31;5053864;28;20075;-62
2021/04/08 08:10:15;;;;;;;3.73;2.87;;;;;;;5.06;47.09;99207.81;5051898;28;20036;-62
2021/04/08 08:12:40;;;;;;;4.07;3.03;;;;;;;4.87;47.68;99205.91;5052217;28;20331;-68
2021/04/08 08:15:13;;;;;;;5.10;3.37;;;;;;;5.05;47.62;99189.19;5055082;28;20107;-67
2021/04/08 08:17:38;;;;;;;3.13;2.83;;;;;;;5.07;47.76;99196.84;5052173;28;20370;-65
2021/04/08 08:20:06;;;;;;;2.53;2.33;;;;;;;4.98;48.32;99191.63;5054770;28;20021;-65
2021/04/08 08:22:35;;;;;;;3.00;2.40;;;;;;;5.05;46.92;99201.03;5053677;28;20078;-65
2021/04/08 08:25:01;;;;;;;5.50;2.80;;;;;;;5.00;47.60;99197.59;5058423;28;20065;-65
2021/04/08 08:27:46;;;;;;;5.33;2.90;;;;;;;5.11;47.66;99203.66;5053282;28;20087;-62
2021/04/08 08:30:16;;;;;;;4.50;3.45;;;;;;;5.27;47.81;99202.13;5052368;28;20032;-61
2021/04/08 08:33:03;;;;;;;3.10;2.90;;;;;;;5.14;48.76;99211.31;5052538;28;20032;-62
2021/04/08 08:35:29;;;;;;;4.33;2.83;;;;;;;5.05;47.69;99227.31;5053172;28;20037;-62
2021/04/08 08:37:56;;;;;;;4.23;2.37;;;;;;;4.89;48.83;99209.31;5063673;28;20040;-61
2021/04/08 08:40:22;;;;;;;3.37;3.17;;;;;;;4.99;48.50;99203.53;5048141;28;20375;-62
2021/04/08 08:42:50;;;;;;;9.53;2.63;;;;;;;5.13;48.25;99213.84;5050577;28;20036;-62
2021/04/08 08:45:19;;;;;;;3.50;2.97;;;;;;;5.01;49.31;99220.47;5050617;28;20131;-62
2021/04/08 08:47:45;;;;;;;2.70;2.50;;;;;;;5.18;48.41;99228.31;5049825;28;20052;-62
2021/04/08 08:50:13;;;;;;;4.37;2.73;;;;;;;5.11;49.04;99257.03;5053420;28;20028;-62
2021/04/08 08:52:41;;;;;;;4.50;2.80;;;;;;;4.95;49.92;99222.97;5069534;28;20021;-65
2021/04/08 08:55:12;;;;;;;2.37;2.17;;;;;;;5.05;49.64;99226.44;5053227;28;20114;-62
2021/04/08 08:57:39;;;;;;;2.90;2.63;;;;;;;5.21;48.69;99232.59;5054534;28;20082;-65
2021/04/08 09:00:06;;;;;;;2.30;2.10;;;;;;;4.92;48.10;99234.78;5052377;28;20079;-62
2021/04/08 09:02:34;;;;;;;2.93;2.70;;;;;;;4.95;49.55;99245.81;5052183;28;20290;-63
2021/04/08 09:05:01;;;;;;;2.87;2.67;;;;;;;5.05;48.69;99236.59;5056147;28;20053;-64
2021/04/08 09:07:28;;;;;;;2.57;2.37;;;;;;;5.36;49.20;99242.91;5057647;28;20066;-66
2021/04/08 09:09:59;;;;;;;2.97;2.37;;;;;;;5.41;49.01;99233.66;5060493;28;20033;-67
2021/04/08 09:12:26;;;;;;;2.67;2.20;;;;;;;5.63;48.54;99238.16;5058956;28;20159;-64
2021/04/08 09:14:55;;;;;;;3.57;2.73;;;;;;;5.62;46.97;99233.91;5060022;28;20116;-67
2021/04/08 09:17:42;;;;;;;2.70;2.50;;;;;;;5.44;47.96;99232.00;5051070;28;20037;-66
2021/04/08 09:20:15;;;;;;;2.40;2.17;;;;;;;5.22;46.56;99208.88;5049484;28;20037;-65
2021/04/08 09:23:04;;;;;;;3.87;2.40;;;;;;;5.46;47.69;99225.25;5059229;28;20037;-67
2021/04/08 09:25:32;;;;;;;2.47;2.27;;;;;;;5.86;47.41;99235.81;5065105;28;20120;-67
2021/04/08 09:28:13;;;;;;;2.67;2.47;;;;;;;5.86;45.56;99223.97;5065302;28;20071;-67
2021/04/08 09:33:39;;;;;;;2.40;2.20;;;;;;;5.81;45.49;99232.41;5057173;28;20087;-62
2021/04/08 09:36:25;;;;;;;4.43;2.40;;;;;;;6.19;45.33;99230.22;5060484;28;20386;-62
2021/04/08 09:38:52;;;;;;;4.70;2.63;;;;;;;6.11;45.96;99240.31;5062723;28;20040;-61
2021/04/08 09:41:19;;;;;;;3.50;2.60;;;;;;;5.82;46.74;99239.16;5060742;28;20415;-61
2021/04/08 09:43:46;;;;;;;2.50;2.30;;;;;;;5.64;46.98;99237.31;5057180;28;20386;-60
2021/04/08 09:46:13;;;;;;;3.17;2.13;;;;;;;5.89;45.99;99251.16;5056571;28;20027;-63
2021/04/08 09:48:48;;;;;;;2.90;2.57;;;;;;;6.04;45.85;99238.56;5057817;28;20037;-64
2021/04/08 09:51:47;;;;;;;3.22;2.97;;;;;;;6.03;46.02;99229.22;5058354;28;20016;-61
2021/04/08 09:54:16;;;;;;;3.63;2.80;;;;;;;6.07;45.85;99266.59;5060685;28;20040;-60
2021/04/08 09:56:55;;;;;;;3.93;2.83;;;;;;;5.76;46.64;99246.75;5057375;28;20027;-60
2021/04/08 09:59:23;;;;;;;3.47;2.30;;;;;;;5.69;46.92;99237.34;5057415;28;20186;-60
2021/04/08 10:01:49;;;;;;;3.10;2.80;;;;;;;5.82;47.00;99234.06;5058144;28;20112;-60
2021/04/08 10:04:14;;;;;;;2.73;2.50;;;;;;;5.70;45.55;99250.09;5047063;28;20112;-61
2021/04/08 10:06:41;;;;;;;7.03;3.90;;;;;;;5.67;45.52;99249.19;5030793;28;20053;-61
2021/04/08 10:09:08;;;;;;;9.70;4.67;;;;;;;5.66;45.98;99244.94;5032904;28;20038;-60
2021/04/08 10:11:34;;;;;;;5.70;3.40;;;;;;;5.68;45.78;99236.50;5032767;28;20269;-61
2021/04/08 10:14:00;;;;;;;2.47;2.27;;;;;;;6.03;45.26;99253.81;5036777;28;20032;-61
2021/04/08 10:16:25;;;;;;;4.80;2.47;;;;;;;5.85;44.47;99255.34;5036832;28;20025;-62
2021/04/08 10:19:01;;;;;;;3.33;2.43;;;;;;;6.14;43.81;99253.09;5035083;28;20048;-60
2021/04/08 10:21:27;;;;;;;2.50;2.30;;;;;;;6.20;41.33;99242.09;5033296;28;20025;-60
2021/04/08 10:23:54;;;;;;;5.73;3.07;;;;;;;6.00;42.52;99241.94;5034278;28;20032;-60
2021/04/08 10:26:28;;;;;;;6.40;2.97;;;;;;;6.35;43.88;99253.25;5008913;28;20373;-60
2021/04/08 10:28:56;;;;;;;3.73;3.27;;;;;;;6.74;41.47;99267.13;5034972;28;20267;-62
2021/04/08 10:31:29;;;;;;;2.70;2.50;;;;;;;6.75;41.89;99268.81;5032572;28;20025;-62
2021/04/08 10:34:19;;;;;;;2.60;2.40;;;;;;;6.82;42.15;99242.53;5034292;28;20041;-60
2021/04/08 10:36:54;;;;;;;5.37;2.50;;;;;;;6.85;41.75;99242.53;5037584;28;20026;-60
2021/04/08 10:39:26;;;;;;;4.95;3.03;;;;;;;6.91;41.86;99236.63;5035251;28;20037;-61
2021/04/08 10:42:11;;;;;;;5.33;2.43;;;;;;;6.92;41.63;99246.81;5030428;28;20022;-62
2021/04/08 10:44:44;;;;;;;2.85;2.55;;;;;;;6.89;41.87;99246.81;5033778;28;20371;-61
2021/04/08 10:47:37;;;;;;;2.50;2.30;;;;;;;6.69;41.46;99263.69;5034118;28;20029;-61
2021/04/08 10:50:05;;;;;;;2.07;1.93;;;;;;;6.69;41.38;99244.16;5038306;28;20120;-61
2021/04/08 10:52:33;;;;;;;2.47;2.27;;;;;;;6.81;41.59;99259.53;5031670;28;20121;-61
2021/04/08 10:55:04;;;;;;;2.60;2.40;;;;;;;7.05;42.17;99274.09;5025672;28;20036;-61
2021/04/08 10:57:30;;;;;;;4.27;2.93;;;;;;;7.06;41.78;99283.44;5034494;28;20353;-61
2021/04/08 10:59:58;;;;;;;2.60;2.40;;;;;;;7.18;41.85;99270.75;5016355;28;20036;-61
2021/04/08 11:02:34;;;;;;;2.73;2.50;;;;;;;7.32;40.83;99278.47;5033797;28;20041;-61
2021/04/08 11:05:03;;;;;;;2.80;2.60;;;;;;;6.91;40.83;99291.03;5052956;28;20160;-61
2021/04/08 11:07:36;;;;;;;2.63;2.43;;;;;;;6.57;41.77;99279.75;5053297;28;20025;-60
2021/04/08 11:10:18;;;;;;;2.97;2.67;;;;;;;6.89;41.29;99283.34;5053191;28;20039;-60
2021/04/08 11:12:47;;;;;;;3.20;2.43;;;;;;;6.84;40.35;99289.25;5055201;28;20033;-66
2021/04/08 11:15:13;;;;;;;3.00;2.03;;;;;;;6.94;41.05;99275.75;5054546;28;20052;-66
2021/04/08 11:17:45;;;;;;;3.80;2.70;;;;;;;7.00;41.07;99305.53;5055484;28;20021;-65
2021/04/08 11:20:13;;;;;;;2.70;2.50;;;;;;;7.14;41.06;99297.09;5053375;28;20116;-64
2021/04/08 11:22:43;;;;;;;1.87;1.77;;;;;;;6.83;40.46;99285.03;5055398;28;20032;-63
2021/04/08 11:25:10;;;;;;;2.50;2.30;;;;;;;6.52;40.41;99276.31;5054958;28;20029;-64
2021/04/08 11:27:39;;;;;;;2.40;2.20;;;;;;;6.42;40.18;99275.38;5050890;28;20021;-65
2021/04/08 11:30:07;;;;;;;2.40;2.20;;;;;;;6.38;39.96;99283.84;5052637;28;20029;-62
2021/04/08 11:32:47;;;;;;;2.07;1.87;;;;;;;6.24;40.16;99280.31;5055304;28;20143;-62
2021/04/08 11:35:26;;;;;;;2.57;2.17;;;;;;;6.42;40.08;99288.13;5051809;28;20294;-63
2021/04/08 11:38:04;;;;;;;2.10;2.00;;;;;;;6.21;39.29;99272.66;5049124;28;20025;-63
2021/04/08 11:40:29;;;;;;;1.57;1.33;;;;;;;6.35;38.81;99278.72;5052856;28;20259;-63
2021/04/08 11:42:55;;;;;;;2.87;1.77;;;;;;;6.45;38.15;99289.81;5053116;28;20155;-63
2021/04/08 11:45:23;;;;;;;1.30;1.30;;;;;;;6.33;37.59;99298.22;5053409;28;20275;-62
2021/04/08 11:47:58;;;;;;;3.30;2.03;;;;;;;6.47;38.34;99266.91;5051916;28;20029;-64
2021/04/08 11:50:28;;;;;;;3.75;1.90;;;;;;;6.56;38.11;99287.38;5051047;28;20033;-63
2021/04/08 11:53:31;;;;;;;3.10;1.63;;;;;;;6.93;37.39;99304.59;5051859;28;20035;-62